Time;durP1;ratioP1;P1;durP2;ratioP2;P2;SDS_P1;SDS_P2;PMS_P1;PMS_P2;Temp;Humidity;BMP_temperature;BMP_pressure;BME280_temperature;BME280_humidity;BME280_pressure;Samples;Min_cycle;Max_cycle;Signal;HPM_P1;HPM_P2
2023/01/31 03:23:41;;;;;;;26.58;10.68;;;;;;;1.92;100.00;102383.06;2836199;22;20051;-96
2023/01/31 03:26:07;;;;;;;26.57;11.80;;;;;;;1.92;100.00;102393.34;4966242;28;20039;-96
2023/01/31 03:28:35;;;;;;;26.73;11.32;;;;;;;1.95;100.00;102387.56;4974198;28;20294;-96
2023/01/31 03:31:13;;;;;;;29.38;12.00;;;;;;;1.95;100.00;102376.41;4986678;28;20034;-96
2023/01/31 03:33:43;;;;;;;24.08;11.27;;;;;;;1.95;100.00;102387.56;4976019;28;20026;-96
2023/01/31 03:36:08;;;;;;;29.48;11.88;;;;;;;1.94;100.00;102380.66;4970994;28;20026;-96
2023/01/31 03:38:44;;;;;;;26.92;11.20;;;;;;;1.92;100.00;102371.91;4974486;28;20041;-96
2023/01/31 03:41:22;;;;;;;30.50;12.15;;;;;;;1.92;100.00;102370.22;4976032;28;20038;-96
2023/01/31 03:44:02;;;;;;;25.38;11.32;;;;;;;1.95;100.00;102381.56;4969776;28;20116;-96
2023/01/31 03:46:40;;;;;;;36.35;12.77;;;;;;;1.94;100.00;102377.16;4971359;28;20026;-96
2023/01/31 03:49:10;;;;;;;24.20;12.07;;;;;;;1.94;100.00;102366.88;4973476;28;20022;-96
2023/01/31 03:51:43;;;;;;;30.40;13.40;;;;;;;1.94;100.00;102365.25;4988648;28;20022;-96
2023/01/31 03:54:32;;;;;;;32.63;12.85;;;;;;;1.97;100.00;102360.34;4972819;28;20153;-96
2023/01/31 04:15:47;;;;;;;33.50;13.32;;;;;;;2.14;100.00;102351.44;2899051;23;20045;-96
2023/01/31 04:18:13;;;;;;;33.85;13.77;;;;;;;2.13;100.00;102352.22;5098335;23;20123;-96
2023/01/31 04:44:08;;;;;;;;;;;;;;;;;;;;;
2023/01/31 04:46:49;;;;;;;29.97;13.60;;;;;;;2.11;100.00;102348.63;5019816;28;20045;-96
2023/01/31 04:49:23;;;;;;;35.50;13.30;;;;;;;2.12;100.00;102339.25;5003379;28;20037;-96
2023/01/31 04:51:57;;;;;;;33.08;13.45;;;;;;;2.10;100.00;102339.13;5006992;28;20030;-96
2023/01/31 04:54:35;;;;;;;30.92;13.52;;;;;;;2.09;100.00;102340.78;5005945;28;20025;-96
2023/01/31 04:57:07;;;;;;;28.33;12.52;;;;;;;2.06;100.00;102330.25;5001463;28;20047;-96
2023/01/31 04:59:38;;;;;;;29.52;13.23;;;;;;;2.05;100.00;102319.84;5006365;28;20102;-96
2023/01/31 05:02:07;;;;;;;39.15;14.32;;;;;;;2.06;100.00;102321.66;5001203;28;20156;-96
2023/01/31 05:04:41;;;;;;;30.70;13.13;;;;;;;2.03;100.00;102305.97;5003854;28;20030;-96
2023/01/31 05:07:13;;;;;;;34.53;13.30;;;;;;;2.03;100.00;102317.16;5007883;28;20033;-96
2023/01/31 05:09:44;;;;;;;33.25;13.38;;;;;;;2.04;100.00;102310.31;5004708;28;20041;-95
2023/01/31 05:12:25;;;;;;;;;;;;;;;;;;;;;
2023/01/31 05:14:59;;;;;;;32.33;14.13;;;;;;;2.04;100.00;102306.09;5012172;28;20105;-96
2023/01/31 05:17:28;;;;;;;35.42;13.88;;;;;;;2.07;100.00;102308.00;5001284;28;20022;-96
2023/01/31 05:20:00;;;;;;;35.53;14.40;;;;;;;2.09;100.00;102304.78;4998460;28;20057;-96
2023/01/31 05:22:46;;;;;;;27.30;13.30;;;;;;;2.08;100.00;102307.22;5000620;28;20038;-95
2023/01/31 05:25:14;;;;;;;30.85;13.40;;;;;;;2.11;100.00;102302.34;5019412;28;20045;-96
2023/01/31 05:27:49;;;;;;;33.00;12.95;;;;;;;2.13;100.00;102300.81;4989870;28;20037;-96
2023/01/31 05:31:02;;;;;;;32.40;13.10;;;;;;;2.15;100.00;102299.25;4984212;28;20026;-96
2023/01/31 05:33:49;;;;;;;33.72;13.35;;;;;;;2.18;100.00;102312.34;5009791;28;20034;-96
2023/01/31 05:36:21;;;;;;;26.75;13.88;;;;;;;2.19;100.00;102297.84;4993581;28;20042;-96
2023/01/31 05:38:57;;;;;;;29.52;13.60;;;;;;;2.18;100.00;102302.06;4985329;28;20030;-96
2023/01/31 05:41:47;;;;;;;32.72;14.00;;;;;;;2.17;100.00;102287.44;4993525;28;20027;-96
2023/01/31 05:44:34;;;;;;;;;;;;;;;;;;;;;
2023/01/31 05:49:40;;;;;;;30.25;12.75;;;;;;;2.20;100.00;102292.81;5007147;28;20483;-96
2023/01/31 05:52:06;;;;;;;31.70;13.65;;;;;;;2.19;100.00;102284.97;4991584;28;20026;-96
2023/01/31 05:54:31;;;;;;;32.88;13.80;;;;;;;2.18;100.00;102281.50;4994928;28;20026;-96
2023/01/31 05:56:56;;;;;;;36.13;13.32;;;;;;;2.20;100.00;102279.03;4990632;28;20045;-95
2023/01/31 05:59:22;;;;;;;37.50;13.65;;;;;;;2.21;100.00;102273.13;4995252;28;20026;-96
2023/01/31 06:01:48;;;;;;;32.47;13.38;;;;;;;2.21;100.00;102271.44;4996343;28;20018;-96
2023/01/31 06:04:16;;;;;;;35.05;12.85;;;;;;;2.24;100.00;102281.09;4990401;28;20045;-96
2023/01/31 06:06:41;;;;;;;30.77;12.60;;;;;;;2.24;100.00;102284.53;4993689;28;20057;-96
2023/01/31 06:09:07;;;;;;;30.55;12.20;;;;;;;2.24;100.00;102289.69;4994021;28;20034;-96
2023/01/31 06:11:33;;;;;;;31.27;12.70;;;;;;;2.27;100.00;102294.19;4994019;28;20064;-96
2023/01/31 06:13:59;;;;;;;26.90;12.57;;;;;;;2.29;100.00;102295.22;4992176;28;20500;-96
2023/01/31 06:16:24;;;;;;;29.73;12.52;;;;;;;2.33;100.00;102286.06;4989550;28;20059;-96
2023/01/31 06:18:54;;;;;;;25.77;11.70;;;;;;;2.34;100.00;102286.19;4992705;28;20459;-96
2023/01/31 06:21:20;;;;;;;31.55;12.77;;;;;;;2.35;100.00;102280.28;4992366;28;20030;-96
2023/01/31 06:23:46;;;;;;;27.23;11.65;;;;;;;2.37;100.00;102280.41;4991591;28;20037;-96
2023/01/31 06:26:12;;;;;;;28.27;11.75;;;;;;;2.39;100.00;102281.41;4992325;28;20029;-96
2023/01/31 06:28:38;;;;;;;30.50;11.93;;;;;;;2.43;100.00;102298.88;4992328;28;20117;-96
2023/01/31 06:31:08;;;;;;;29.63;11.07;;;;;;;2.44;100.00;102298.13;4995066;28;20493;-96
2023/01/31 06:33:34;;;;;;;25.13;11.25;;;;;;;2.44;100.00;102282.69;4990317;28;20045;-96
2023/01/31 06:36:02;;;;;;;31.55;11.60;;;;;;;2.44;100.00;102278.44;4999552;28;20081;-96
2023/01/31 06:38:30;;;;;;;30.23;11.65;;;;;;;2.46;100.00;102265.69;5005412;28;20056;-96
2023/01/31 06:41:04;;;;;;;32.95;11.05;;;;;;;2.48;100.00;102265.81;5003764;28;20079;-96
2023/01/31 06:43:32;;;;;;;23.38;10.68;;;;;;;2.49;100.00;102267.59;5005560;28;20529;-96
2023/01/31 06:45:58;;;;;;;28.13;11.03;;;;;;;2.50;100.00;102262.59;5009134;28;20029;-96
2023/01/31 06:48:31;;;;;;;25.50;10.48;;;;;;;2.52;100.00;102261.03;5009978;28;20888;-96
2023/01/31 06:53:34;;;;;;;29.52;10.60;;;;;;;2.54;100.00;102249.19;5116765;23;20049;-96
2023/01/31 06:56:05;;;;;;;29.02;10.45;;;;;;;2.57;100.00;102252.00;4996802;28;20038;-96
2023/01/31 06:58:34;;;;;;;26.67;9.90;;;;;;;2.58;100.00;102251.22;4990797;28;20094;-96
2023/01/31 07:01:11;;;;;;;28.02;10.55;;;;;;;2.63;100.00;102253.28;4982868;28;20030;-96
2023/01/31 07:03:42;;;;;;;24.70;9.77;;;;;;;2.63;100.00;102250.69;5004097;28;20462;-96
2023/01/31 07:06:09;;;;;;;29.02;9.98;;;;;;;2.65;100.00;102259.41;4993246;28;20037;-96
2023/01/31 07:13:56;;;;;;;26.98;9.90;;;;;;;2.71;100.00;102254.75;5272809;23;20054;-96
2023/01/31 07:16:27;;;;;;;25.05;10.25;;;;;;;2.70;100.00;102247.81;5026308;28;20029;-96
2023/01/31 07:19:12;;;;;;;28.23;10.18;;;;;;;2.72;100.00;102248.84;5021818;28;20029;-96
2023/01/31 07:21:43;;;;;;;24.08;10.02;;;;;;;2.73;100.00;102236.09;5027764;28;20037;-96
2023/01/31 07:24:20;;;;;;;23.63;9.60;;;;;;;2.76;100.00;102238.00;5024575;28;20036;-96
2023/01/31 07:26:53;;;;;;;22.73;10.00;;;;;;;2.79;100.00;102235.66;5021098;28;20055;-96
2023/01/31 07:29:29;;;;;;;20.73;8.95;;;;;;;2.83;100.00;102232.56;5032808;28;20037;-96
2023/01/31 07:31:57;;;;;;;25.42;9.43;;;;;;;2.85;100.00;102235.25;5030639;28;20506;-96
2023/01/31 07:34:47;;;;;;;25.40;9.40;;;;;;;2.88;100.00;102236.41;5030922;28;20021;-96
2023/01/31 07:37:16;;;;;;;26.50;8.70;;;;;;;2.93;100.00;102241.91;5067178;23;20062;-96
2023/01/31 07:39:47;;;;;;;23.42;9.23;;;;;;;2.96;100.00;102232.72;5001398;28;20029;-96
2023/01/31 07:42:12;;;;;;;21.75;8.43;;;;;;;3.00;100.00;102240.66;5019260;28;20149;-96
2023/01/31 07:44:43;;;;;;;26.15;9.10;;;;;;;3.04;100.00;102232.41;5000935;28;20164;-95
2023/01/31 07:47:21;;;;;;;24.88;8.85;;;;;;;3.08;100.00;102229.28;5012567;28;20475;-96
2023/01/31 07:49:49;;;;;;;23.08;9.35;;;;;;;3.10;100.00;102214.84;5007851;28;20112;-96
2023/01/31 07:52:17;;;;;;;21.20;8.15;;;;;;;3.13;100.00;102223.72;5001072;28;20020;-96
2023/01/31 07:54:43;;;;;;;23.58;8.40;;;;;;;3.17;100.00;102211.94;5001571;28;20064;-96
2023/01/31 07:57:08;;;;;;;32.58;9.02;;;;;;;3.21;100.00;102211.41;5004455;28;20045;-96
2023/01/31 07:59:37;;;;;;;23.35;8.30;;;;;;;3.26;100.00;102211.78;5002458;28;20029;-95
2023/01/31 08:04:46;;;;;;;21.67;8.18;;;;;;;3.35;99.66;102206.41;5020909;28;20551;-96
2023/01/31 08:07:12;;;;;;;22.85;8.93;;;;;;;3.36;99.92;102198.78;5000294;28;21150;-96
2023/01/31 08:09:38;;;;;;;19.55;8.23;;;;;;;3.36;100.00;102205.59;5000675;28;20030;-96
2023/01/31 08:12:04;;;;;;;23.42;8.70;;;;;;;3.37;99.70;102204.84;5000114;28;20128;-95
2023/01/31 08:14:32;;;;;;;21.70;8.80;;;;;;;3.38;99.69;102198.91;5003182;28;20065;-96
2023/01/31 08:17:12;;;;;;;22.65;8.80;;;;;;;3.38;99.83;102194.63;5007466;28;20082;-96
2023/01/31 08:19:40;;;;;;;26.75;8.95;;;;;;;3.38;99.77;102198.91;4978481;28;20035;-96
2023/01/31 08:22:26;;;;;;;21.20;8.57;;;;;;;3.41;99.94;102194.88;4959020;28;20043;-96
2023/01/31 08:25:07;;;;;;;24.45;10.13;;;;;;;3.46;99.70;102187.47;4991437;28;20038;-96
2023/01/31 08:27:51;;;;;;;24.45;9.10;;;;;;;3.48;99.74;102191.97;4988935;28;20090;-96
2023/01/31 08:34:00;;;;;;;;;;;;;;;;;;;;;
2023/01/31 08:37:26;;;;;;;29.15;8.50;;;;;;;3.60;99.45;102176.50;4961624;28;20055;-96
2023/01/31 08:40:15;;;;;;;19.88;7.78;;;;;;;3.64;99.02;102178.53;4971675;28;20051;-96
2023/01/31 08:43:00;;;;;;;23.58;7.70;;;;;;;3.68;99.12;102174.50;4953150;29;20030;-96
2023/01/31 08:46:03;;;;;;;24.17;7.47;;;;;;;3.76;98.72;102167.31;4967460;29;20019;-96
2023/01/31 08:48:47;;;;;;;18.63;7.80;;;;;;;3.80;98.68;102164.19;4950183;29;20067;-96
2023/01/31 08:51:22;;;;;;;20.10;7.90;;;;;;;3.81;98.43;102161.72;4963856;28;20058;-96
2023/01/31 08:53:52;;;;;;;20.65;7.70;;;;;;;3.84;98.65;102161.03;4994844;28;20042;-96
2023/01/31 08:56:59;;;;;;;22.30;7.65;;;;;;;3.89;98.20;102149.38;5011281;28;20058;-96
2023/01/31 08:59:44;;;;;;;20.10;7.38;;;;;;;3.91;98.48;102145.22;5010283;28;20027;-96
2023/01/31 09:02:21;;;;;;;21.75;7.63;;;;;;;3.94;98.26;102154.84;4985210;28;20080;-96
2023/01/31 09:08:08;;;;;;;18.50;7.63;;;;;;;4.03;99.10;102146.88;5699947;23;20068;-96
2023/01/31 09:13:09;;;;;;;19.98;8.18;;;;;;;4.08;98.96;102137.78;4757629;26;20069;-96
2023/01/31 09:15:43;;;;;;;21.90;7.57;;;;;;;4.10;99.16;102134.53;4984253;28;20030;-96
2023/01/31 09:18:14;;;;;;;19.30;6.88;;;;;;;4.13;99.10;102145.06;4983647;28;20029;-96
2023/01/31 09:20:41;;;;;;;24.40;8.02;;;;;;;4.14;99.36;102140.78;4980506;28;20378;-96
2023/01/31 09:23:07;;;;;;;26.05;9.82;;;;;;;4.16;99.05;102137.53;4982788;28;20018;-96
2023/01/31 09:25:32;;;;;;;22.58;7.38;;;;;;;4.21;99.46;102136.97;4979113;28;20519;-96
2023/01/31 09:28:01;;;;;;;22.70;7.50;;;;;;;4.25;99.12;102118.34;4980617;28;20497;-96
2023/01/31 09:38:26;;;;;;;21.98;7.22;;;;;;;4.62;98.83;102126.94;2771108;23;20460;-96
2023/01/31 09:51:20;;;;;;;25.95;8.63;;;;;;;4.87;98.25;102119.16;4815547;26;20041;-96
2023/01/31 09:53:48;;;;;;;17.90;7.47;;;;;;;4.95;98.09;102122.25;5106958;23;20144;-96
2023/01/31 09:56:23;;;;;;;20.08;7.43;;;;;;;5.08;98.01;102131.72;3066986;23;20096;-96
2023/01/31 09:58:49;;;;;;;19.27;7.55;;;;;;;5.18;97.29;102125.47;5171872;23;20043;-96
2023/01/31 10:14:28;;;;;;;25.23;9.38;;;;;;;5.22;96.87;102122.31;2742756;23;20303;-96
2023/01/31 10:17:02;;;;;;;20.58;8.98;;;;;;;5.20;96.92;102111.00;4963701;28;20418;-96
2023/01/31 10:22:18;;;;;;;24.27;9.35;;;;;;;5.22;97.43;102091.31;2737550;23;20129;-95
2023/01/31 10:29:52;;;;;;;28.40;10.15;;;;;;;5.25;97.69;102106.13;5215179;23;20065;-94
2023/01/31 10:37:58;;;;;;;29.33;13.20;;;;;;;5.17;97.82;102129.75;3069036;23;20430;-93
2023/01/31 10:40:43;;;;;;;34.35;13.88;;;;;;;5.17;98.30;102123.69;5022080;28;20037;-94
2023/01/31 10:43:42;;;;;;;32.08;13.40;;;;;;;5.18;98.48;102123.78;5027671;28;20037;-95
2023/01/31 10:48:46;;;;;;;31.48;14.38;;;;;;;5.19;99.15;102110.06;4758145;26;20062;-96
2023/01/31 11:04:42;;;;;;;39.60;17.38;;;;;;;5.44;99.05;102100.47;4320822;23;20113;-96
2023/01/31 11:07:11;;;;;;;37.88;17.08;;;;;;;5.49;99.45;102096.47;4968211;28;20042;-96
2023/01/31 11:12:12;;;;;;;35.55;17.15;;;;;;;5.54;98.92;102095.97;4412061;23;20250;-93
2023/01/31 11:22:45;;;;;;;38.55;17.23;;;;;;;5.69;98.65;102064.13;4890763;23;20156;-96
2023/01/31 11:40:58;;;;;;;36.05;16.23;;;;;;;5.92;97.91;102053.53;5044914;23;20046;-95
2023/01/31 11:43:33;;;;;;;32.67;16.77;;;;;;;5.94;97.97;102056.22;4970254;28;20112;-96
2023/01/31 11:46:03;;;;;;;34.08;15.77;;;;;;;5.98;98.05;102053.06;4971105;28;20041;-96
2023/01/31 11:48:39;;;;;;;35.85;15.88;;;;;;;5.99;98.05;102049.66;4971732;28;20034;-96
2023/01/31 11:51:05;;;;;;;31.70;15.43;;;;;;;6.01;97.75;102047.16;4970631;28;20498;-95
2023/01/31 11:53:51;;;;;;;31.70;14.77;;;;;;;6.00;97.66;102043.69;4981159;28;20026;-96
2023/01/31 11:56:38;;;;;;;29.65;15.20;;;;;;;6.00;97.60;102041.09;4971554;28;20096;-96
2023/01/31 11:59:16;;;;;;;36.40;15.40;;;;;;;6.00;97.51;102041.09;4969362;28;20045;-96
2023/01/31 12:01:51;;;;;;;31.02;15.18;;;;;;;5.98;98.49;102042.72;4969884;28;20034;-96
2023/01/31 12:04:25;;;;;;;30.27;14.68;;;;;;;5.96;98.89;102041.69;4970360;28;20121;-96
2023/01/31 12:07:29;;;;;;;32.08;14.73;;;;;;;5.95;99.38;102039.88;4971406;28;20030;-96
2023/01/31 12:10:02;;;;;;;36.13;15.20;;;;;;;5.92;99.57;102037.09;4967815;28;20049;-96
2023/01/31 12:12:36;;;;;;;28.25;14.05;;;;;;;5.90;99.35;102033.56;4969285;28;20030;-96
2023/01/31 12:15:12;;;;;;;29.33;14.20;;;;;;;5.88;99.36;102042.88;4972050;28;20033;-96
2023/01/31 12:17:45;;;;;;;30.02;14.93;;;;;;;5.89;99.42;102045.59;4969203;28;20045;-96
2023/01/31 12:20:23;;;;;;;35.45;15.43;;;;;;;5.90;99.88;102033.56;4971715;28;20125;-96
2023/01/31 12:23:19;;;;;;;34.55;15.02;;;;;;;5.91;100.00;102043.09;4973446;28;20490;-96
2023/01/31 12:26:09;;;;;;;32.80;13.85;;;;;;;5.91;100.00;102036.22;4970429;28;20038;-96
2023/01/31 12:42:28;;;;;;;31.45;14.07;;;;;;;5.79;100.00;102019.06;5012689;23;20104;-96
2023/01/31 12:45:11;;;;;;;28.92;13.50;;;;;;;5.79;100.00;102029.41;4983332;28;20833;-96
2023/01/31 12:47:43;;;;;;;31.60;13.57;;;;;;;5.79;100.00;102031.97;4987548;28;20037;-96
2023/01/31 12:50:45;;;;;;;30.23;14.25;;;;;;;5.78;100.00;102027.59;4982653;28;20036;-96
2023/01/31 12:53:47;;;;;;;30.25;14.30;;;;;;;5.79;100.00;102031.97;4982225;28;20041;-96
2023/01/31 12:56:46;;;;;;;29.55;13.65;;;;;;;5.78;100.00;102022.44;4963854;28;20047;-96
2023/01/31 12:59:41;;;;;;;31.58;13.55;;;;;;;5.77;100.00;102020.66;4983111;28;20038;-96
2023/01/31 13:02:15;;;;;;;28.15;12.90;;;;;;;5.78;100.00;102022.44;4967261;28;20036;-96
2023/01/31 13:04:47;;;;;;;30.83;13.80;;;;;;;5.76;100.00;102014.56;5035004;23;20145;-95
2023/01/31 13:07:28;;;;;;;29.83;13.27;;;;;;;5.80;100.00;102013.97;5009243;28;20026;-96
2023/01/31 13:09:57;;;;;;;32.05;13.27;;;;;;;5.78;100.00;102005.25;4997719;28;20030;-92
2023/01/31 13:12:29;;;;;;;31.85;13.55;;;;;;;5.80;100.00;102010.50;5022481;28;20037;-95
2023/01/31 13:15:26;;;;;;;43.05;20.77;;;;;;;5.81;100.00;102004.50;5022851;28;20026;-92
2023/01/31 13:17:59;;;;;;;27.33;12.15;;;;;;;5.79;100.00;101998.38;5009164;28;20104;-96
2023/01/31 13:20:54;;;;;;;26.27;11.68;;;;;;;5.83;100.00;102008.09;4996592;28;20021;-95
2023/01/31 13:23:46;;;;;;;30.52;11.77;;;;;;;5.84;100.00;102007.31;5011477;28;20043;-95
2023/01/31 13:26:28;;;;;;;25.33;10.90;;;;;;;5.87;100.00;102017.84;4998559;28;20030;-95
2023/01/31 13:29:14;;;;;;;22.60;10.57;;;;;;;5.91;100.00;102019.81;5011493;28;20036;-95
2023/01/31 13:31:48;;;;;;;24.42;9.68;;;;;;;5.91;100.00;102014.66;4997738;28;20021;-95
2023/01/31 13:34:24;;;;;;;26.52;9.88;;;;;;;5.94;100.00;102014.84;5001093;28;20054;-95
2023/01/31 13:37:05;;;;;;;22.20;9.43;;;;;;;5.98;100.00;102021.09;4996341;28;20041;-94
2023/01/31 13:39:47;;;;;;;20.33;9.43;;;;;;;6.01;100.00;102013.53;4996916;28;20030;-91
2023/01/31 13:42:14;;;;;;;17.58;8.63;;;;;;;6.03;100.00;102004.19;5015889;28;20037;-93
2023/01/31 13:44:44;;;;;;;19.90;9.75;;;;;;;6.05;100.00;102003.50;5018348;28;20105;-93
2023/01/31 13:47:21;;;;;;;18.25;8.57;;;;;;;6.08;100.00;101998.50;5015617;28;20499;-94
2023/01/31 13:49:52;;;;;;;21.58;9.95;;;;;;;6.12;100.00;101996.09;5000754;28;20357;-92
2023/01/31 13:52:27;;;;;;;22.10;8.93;;;;;;;6.14;100.00;101997.06;5017989;28;20034;-93
2023/01/31 13:54:58;;;;;;;20.88;8.57;;;;;;;6.19;100.00;101995.66;4999509;28;20167;-93
2023/01/31 13:57:34;;;;;;;21.17;9.45;;;;;;;6.24;100.00;101991.63;5019799;28;20048;-93
2023/01/31 14:00:23;;;;;;;25.98;9.35;;;;;;;6.28;100.00;102001.38;5003701;28;20053;-92
2023/01/31 14:02:58;;;;;;;;;;;;;;;6.32;100.00;101992.09;5016921;28;20026;-94
2023/01/31 14:05:43;;;;;;;21.02;10.23;;;;;;;6.36;100.00;101997.56;5015577;28;19925;-93
2023/01/31 14:49:42;;;;;;;28.73;9.98;;;;;;;6.65;100.00;102050.16;5509263;23;20053;-96
2023/01/31 14:52:42;;;;;;;31.88;9.00;;;;;;;6.66;100.00;102067.47;5004876;28;20052;-95
2023/01/31 14:55:17;;;;;;;24.35;9.57;;;;;;;6.68;100.00;102071.06;5006156;28;20037;-96
2023/01/31 14:57:52;;;;;;;28.80;9.18;;;;;;;6.66;100.00;102075.25;5007302;28;20022;-96
2023/01/31 15:00:30;;;;;;;23.35;9.10;;;;;;;6.69;100.00;102066.78;5001845;28;20053;-96
2023/01/31 15:03:45;;;;;;;28.58;8.88;;;;;;;6.70;100.00;102056.50;5003816;28;20097;-95
2023/01/31 15:06:32;;;;;;;27.73;9.45;;;;;;;6.72;100.00;102062.69;5007367;28;20137;-96
2023/01/31 15:09:38;;;;;;;25.45;8.48;;;;;;;6.73;100.00;102064.44;5005503;28;20520;-96
2023/01/31 15:12:26;;;;;;;25.42;7.97;;;;;;;6.74;100.00;102066.25;4974796;28;20034;-96
2023/01/31 15:15:10;;;;;;;30.53;8.57;;;;;;;6.76;100.00;102063.75;5006707;28;20037;-96
2023/01/31 15:17:58;;;;;;;22.88;8.18;;;;;;;6.77;100.00;102060.34;5006589;28;20481;-96
2023/01/31 15:21:01;;;;;;;33.53;9.13;;;;;;;6.82;100.00;102070.97;5013128;28;20030;-96
2023/01/31 15:34:07;;;;;;;27.92;8.95;;;;;;;6.83;100.00;102073.66;4157252;23;20164;-96
2023/01/31 15:39:50;;;;;;;27.20;8.43;;;;;;;6.87;100.00;102069.56;5016756;23;20058;-96
2023/01/31 15:42:28;;;;;;;27.92;8.30;;;;;;;6.88;100.00;102071.31;5240175;23;20050;-96
2023/01/31 15:45:16;;;;;;;27.92;8.40;;;;;;;6.90;100.00;102082.69;4952251;28;20133;-96
2023/01/31 15:47:45;;;;;;;29.70;8.20;;;;;;;6.88;100.00;102081.69;4961119;28;20402;-96
2023/01/31 15:50:16;;;;;;;38.33;9.43;;;;;;;6.88;100.00;102080.00;4951073;28;20031;-96
2023/01/31 15:52:43;;;;;;;28.60;9.15;;;;;;;6.88;100.00;102067.06;4968035;28;20039;-96
2023/01/31 15:55:15;;;;;;;29.45;8.55;;;;;;;6.89;100.00;102070.53;4960625;28;20421;-96
2023/01/31 15:57:57;;;;;;;25.08;8.20;;;;;;;6.89;100.00;102070.53;4967770;28;20018;-96
2023/01/31 16:00:29;;;;;;;27.88;7.57;;;;;;;6.87;100.00;102074.75;4968160;28;20140;-96
2023/01/31 16:03:01;;;;;;;21.55;7.40;;;;;;;6.87;100.00;102079.94;4951827;28;20082;-96
2023/01/31 16:05:43;;;;;;;33.05;8.95;;;;;;;6.89;100.00;102083.50;4952568;28;20027;-96
2023/01/31 16:13:24;;;;;;;34.40;7.93;;;;;;;6.92;100.00;102109.56;5543729;23;20055;-96
2023/01/31 16:15:59;;;;;;;27.75;6.95;;;;;;;6.92;100.00;102109.56;4969037;28;20035;-95
2023/01/31 16:18:34;;;;;;;28.73;7.43;;;;;;;6.92;100.00;102114.75;5135972;23;20077;-96
2023/01/31 16:21:14;;;;;;;24.02;6.40;;;;;;;6.92;100.00;102110.50;4989475;28;20038;-95
2023/01/31 16:23:39;;;;;;;19.13;5.68;;;;;;;6.94;100.00;102111.47;4987802;28;20033;-95
2023/01/31 16:26:16;;;;;;;32.40;6.50;;;;;;;6.96;100.00;102106.38;4983513;28;20018;-96
2023/01/31 16:28:49;;;;;;;20.52;5.43;;;;;;;6.94;100.00;102105.41;4983322;28;20027;-95
2023/01/31 16:47:12;;;;;;;23.00;5.72;;;;;;;6.86;100.00;102138.59;5607775;23;20057;-94
2023/01/31 16:50:15;;;;;;;26.55;5.75;;;;;;;6.85;100.00;102138.50;5004669;28;20094;-96
2023/01/31 16:52:48;;;;;;;30.30;7.25;;;;;;;6.83;100.00;102148.78;4973676;28;20030;-95
2023/01/31 16:55:40;;;;;;;22.75;6.60;;;;;;;6.85;100.00;102144.59;4997114;28;20106;-95
2023/01/31 16:58:37;;;;;;;23.85;5.65;;;;;;;6.82;100.00;102141.81;4986547;28;20145;-96
2023/01/31 17:01:33;;;;;;;30.10;6.97;;;;;;;6.83;100.00;102137.53;4983830;28;20026;-95
2023/01/31 17:04:10;;;;;;;28.55;6.45;;;;;;;6.84;100.00;102139.34;4974397;28;20038;-96
2023/01/31 17:07:02;;;;;;;25.08;7.25;;;;;;;6.84;100.00;102139.34;4987600;28;20038;-96
2023/01/31 17:09:55;;;;;;;23.42;6.13;;;;;;;6.81;100.00;102129.69;4980459;28;20061;-96
2023/01/31 17:12:29;;;;;;;28.58;6.93;;;;;;;6.81;100.00;102126.19;4988633;28;20045;-96
2023/01/31 17:15:02;;;;;;;25.10;6.55;;;;;;;6.78;100.00;102121.72;4984362;28;20053;-96
2023/01/31 17:17:39;;;;;;;27.02;7.10;;;;;;;6.78;100.00;102111.38;4976845;28;20042;-96
2023/01/31 17:20:08;;;;;;;31.98;7.22;;;;;;;6.79;100.00;102116.63;4977797;28;20019;-96
2023/01/31 17:22:50;;;;;;;24.88;6.60;;;;;;;6.79;100.00;102116.63;4979933;28;20540;-95
2023/01/31 17:25:20;;;;;;;25.52;6.47;;;;;;;6.78;100.00;102111.38;4987182;28;20102;-96
2023/01/31 17:27:51;;;;;;;24.33;7.25;;;;;;;6.78;100.00;102104.47;4987808;28;20088;-95
2023/01/31 17:30:26;;;;;;;23.05;7.18;;;;;;;6.79;100.00;102097.59;4982927;28;20049;-96
2023/01/31 17:33:06;;;;;;;24.95;7.07;;;;;;;6.76;100.00;102090.56;4981978;28;20089;-94
2023/01/31 17:35:52;;;;;;;;;;;;;;;;;;;;;
2023/01/31 17:38:34;;;;;;;29.17;7.75;;;;;;;6.77;100.00;102097.50;4995710;28;20098;-96
2023/01/31 17:41:23;;;;;;;;;;;;;;;;;;;;;
2023/01/31 17:44:05;;;;;;;25.88;7.93;;;;;;;6.76;100.00;102106.09;5001427;28;20049;-95
2023/01/31 17:46:35;;;;;;;27.98;8.32;;;;;;;6.76;100.00;102103.50;4978411;28;20093;-96
2023/01/31 17:49:01;;;;;;;27.30;8.35;;;;;;;6.76;100.00;102113.88;4975326;28;20054;-96
2023/01/31 17:51:30;;;;;;;28.27;8.52;;;;;;;6.74;100.00;102115.44;4972124;28;20121;-96
2023/01/31 17:54:04;;;;;;;33.70;8.97;;;;;;;6.72;100.00;102106.72;4974006;28;20030;-95
2023/01/31 17:56:43;;;;;;;28.98;8.65;;;;;;;6.69;100.00;102103.94;4973456;28;20121;-96
2023/01/31 17:59:20;;;;;;;33.50;9.35;;;;;;;6.69;100.00;102113.38;4973228;28;20030;-96
2023/01/31 18:01:51;;;;;;;27.70;7.68;;;;;;;6.67;100.00;102107.25;4981844;28;20038;-95
2023/01/31 18:04:22;;;;;;;30.05;8.45;;;;;;;6.65;100.00;102103.63;4982866;28;20042;-96
2023/01/31 18:06:54;;;;;;;28.92;8.85;;;;;;;6.63;100.00;102106.13;4993281;28;20070;-96
2023/01/31 18:09:40;;;;;;;29.42;7.43;;;;;;;6.64;100.00;102120.00;4989949;28;20086;-95
2023/01/31 18:12:14;;;;;;;27.60;7.60;;;;;;;6.60;100.00;102119.81;4990824;28;20035;-95
2023/01/31 18:14:52;;;;;;;26.05;7.85;;;;;;;6.59;100.00;102115.44;4989821;28;20049;-96
2023/01/31 18:17:53;;;;;;;29.30;8.63;;;;;;;6.58;100.00;102105.00;4997526;28;20117;-96
2023/01/31 18:20:29;;;;;;;27.08;7.93;;;;;;;6.58;100.00;102120.53;4991380;28;20265;-96
2023/01/31 18:23:09;;;;;;;24.45;8.63;;;;;;;6.58;100.00;102107.59;4999989;28;20035;-96
2023/01/31 18:29:00;;;;;;;25.55;9.38;;;;;;;6.56;100.00;102122.09;5105186;23;20118;-93
2023/01/31 18:31:30;;;;;;;35.10;10.70;;;;;;;6.51;100.00;102116.66;4949717;28;20043;-94
2023/01/31 18:34:02;;;;;;;33.63;9.18;;;;;;;6.49;100.00;102113.09;4966994;28;20030;-93
2023/01/31 18:36:33;;;;;;;34.88;10.60;;;;;;;6.47;100.00;102117.28;4950788;28;20667;-94
2023/01/31 18:39:02;;;;;;;32.10;8.98;;;;;;;6.49;100.00;102125.13;4951485;28;20097;-95
2023/01/31 18:41:33;;;;;;;28.50;8.38;;;;;;;6.48;100.00;102120.78;4952714;28;20034;-94
2023/01/31 18:44:11;;;;;;;;;;;;;;;;;;;;;
2023/01/31 18:46:37;;;;;;;24.05;7.30;;;;;;;6.39;100.00;102113.34;4970739;28;20019;-93
2023/01/31 18:49:17;;;;;;;29.60;8.45;;;;;;;6.34;100.00;102115.63;4960905;28;20109;-93
2023/01/31 18:51:45;;;;;;;26.25;8.27;;;;;;;6.29;100.00;102121.34;4965628;28;20081;-94
2023/01/31 18:54:11;;;;;;;30.85;7.75;;;;;;;6.24;100.00;102123.63;4949709;28;20023;-94
2023/01/31 18:57:03;;;;;;;24.48;7.18;;;;;;;6.18;100.00;102118.97;4952442;28;20035;-95
2023/01/31 18:59:34;;;;;;;27.67;7.75;;;;;;;6.14;100.00;102124.78;4954889;28;20130;-95
2023/01/31 19:02:08;;;;;;;35.30;12.15;;;;;;;6.09;100.00;102116.69;4964287;28;20091;-95
2023/01/31 19:07:14;;;;;;;26.65;8.38;;;;;;;6.04;100.00;102115.53;5130843;23;20601;-95
2023/01/31 19:09:43;;;;;;;24.08;7.75;;;;;;;6.00;100.00;102118.72;5007467;28;20045;-96
2023/01/31 19:12:11;;;;;;;31.23;8.33;;;;;;;5.98;100.00;102116.84;5010680;28;20104;-96
2023/01/31 19:14:39;;;;;;;30.75;9.45;;;;;;;5.92;100.00;102112.13;5004695;28;20040;-96
2023/01/31 19:17:20;;;;;;;;;;;;;;;;;;;;;
2023/01/31 19:20:10;;;;;;;29.48;7.15;;;;;;;5.84;100.00;102126.28;5082511;23;20074;-96
2023/01/31 20:37:23;;;;;;;31.10;9.60;;;;;;;5.31;100.00;102132.34;4980106;28;20056;-96
2023/01/31 20:57:58;;;;;;;63.03;19.33;;;;;;;5.23;100.00;102117.25;4150856;23;20092;-95
2023/01/31 21:00:24;;;;;;;37.40;9.52;;;;;;;5.19;100.00;102122.13;4992225;28;20035;-96
2023/01/31 21:02:50;;;;;;;29.60;9.00;;;;;;;5.16;100.00;102132.25;5006114;28;20041;-96
2023/01/31 21:05:17;;;;;;;30.73;9.23;;;;;;;5.12;100.00;102118.22;4993285;28;20010;-96
2023/01/31 21:07:47;;;;;;;28.20;8.18;;;;;;;5.11;100.00;102118.13;4999288;28;20037;-96
2023/01/31 21:10:13;;;;;;;29.88;8.52;;;;;;;5.07;100.00;102119.63;4996933;28;20022;-96